createdAt,value
2019-05-22T00:04:12.131Z,31.03
2019-05-22T00:06:41.515Z,35.47
2019-05-22T00:09:08.930Z,34.07
2019-05-22T00:11:34.855Z,34.87
2019-05-22T00:13:59.685Z,31.03
2019-05-22T00:16:24.509Z,36.20
2019-05-22T00:18:50.694Z,32.90
2019-05-22T00:21:16.699Z,37.50
2019-05-22T00:23:43.784Z,31.43
2019-05-22T00:26:08.266Z,33.97
2019-05-22T00:28:33.449Z,35.73
2019-05-22T00:30:59.280Z,35.00
2019-05-22T00:33:23.816Z,36.97
2019-05-22T00:35:49.936Z,28.37
2019-05-22T00:38:15.319Z,32.80
2019-05-22T00:40:44.974Z,37.00
2019-05-22T00:43:13.969Z,34.77
2019-05-22T00:45:37.382Z,28.13
2019-05-22T00:48:03.177Z,34.90
2019-05-22T00:50:33.549Z,37.27
2019-05-22T00:53:02.682Z,35.70
2019-05-22T00:55:39.795Z,31.17
2019-05-22T00:58:08.152Z,33.03
2019-05-22T01:00:35.575Z,32.50
2019-05-22T01:03:02.275Z,33.07
2019-05-22T01:05:29.555Z,34.53
2019-05-22T01:07:55.726Z,40.40
2019-05-22T01:10:22.841Z,37.33
2019-05-22T01:12:51.403Z,37.70
2019-05-22T01:15:20.528Z,39.77
2019-05-22T01:17:46.646Z,37.47
2019-05-22T01:20:17.910Z,39.43
2019-05-22T01:22:42.578Z,41.27
2019-05-22T01:25:10.509Z,36.93
2019-05-22T01:27:36.636Z,44.17
2019-05-22T01:30:03.508Z,38.73
2019-05-22T01:32:33.635Z,35.50
2019-05-22T01:34:58.169Z,37.23
2019-05-22T01:37:24.056Z,37.97
2019-05-22T01:39:56.084Z,36.03
2019-05-22T01:42:25.250Z,42.30
2019-05-22T01:45:04.189Z,39.17
2019-05-22T01:47:24.480Z,42.67
2019-05-22T01:49:52.081Z,40.10
2019-05-22T01:52:17.242Z,44.73
2019-05-22T01:54:43.035Z,44.80
2019-05-22T01:57:10.260Z,36.83
2019-05-22T01:59:35.315Z,36.47
2019-05-22T02:01:59.858Z,35.10
2019-05-22T02:04:26.796Z,35.60
2019-05-22T02:06:51.423Z,35.77
2019-05-22T02:09:30.939Z,32.17
2019-05-22T02:12:02.661Z,33.57
2019-05-22T02:14:28.134Z,33.07
2019-05-22T02:16:56.635Z,29.97
2019-05-22T02:19:20.768Z,29.27
2019-05-22T02:21:45.762Z,33.80
2019-05-22T02:24:11.796Z,34.80
2019-05-22T02:26:37.123Z,29.00
2019-05-22T02:29:02.830Z,34.13
2019-05-22T02:31:29.322Z,28.63
2019-05-22T02:34:04.737Z,26.37
2019-05-22T02:36:29.432Z,28.07
2019-05-22T02:38:54.766Z,26.30
2019-05-22T02:41:20.483Z,22.83
2019-05-22T02:43:44.934Z,26.97
2019-05-22T02:46:11.944Z,23.50
2019-05-22T02:48:37.284Z,24.53
2019-05-22T02:51:01.945Z,28.03
2019-05-22T02:53:28.620Z,25.53
2019-05-22T02:55:56.192Z,24.57
2019-05-22T02:58:21.228Z,21.23
2019-05-22T03:00:58.370Z,22.20
2019-05-22T03:03:22.901Z,23.90
2019-05-22T03:05:48.600Z,25.83
2019-05-22T03:08:13.226Z,30.13
2019-05-22T03:10:38.807Z,28.13
2019-05-22T03:13:04.181Z,27.03
2019-05-22T03:15:29.972Z,30.37
2019-05-22T03:17:59.120Z,29.03
2019-05-22T03:20:28.822Z,27.17
2019-05-22T03:23:19.001Z,28.60
2019-05-22T03:25:44.103Z,28.07
2019-05-22T03:28:09.965Z,27.43
2019-05-22T03:30:38.224Z,28.37
2019-05-22T03:33:06.748Z,30.27
2019-05-22T03:35:33.354Z,26.00
2019-05-22T03:37:59.230Z,27.80
2019-05-22T03:40:25.433Z,25.90
2019-05-22T03:42:51.258Z,25.17
2019-05-22T03:45:16.792Z,21.03
2019-05-22T03:47:42.040Z,22.13
2019-05-22T03:50:07.935Z,21.70
2019-05-22T03:52:32.897Z,20.43
2019-05-22T03:54:57.585Z,19.80
2019-05-22T03:57:22.974Z,15.30
2019-05-22T03:59:47.877Z,17.93
2019-05-22T04:02:13.273Z,16.37
2019-05-22T04:04:41.078Z,19.67
2019-05-22T04:07:07.730Z,16.33
2019-05-22T04:09:33.431Z,17.27
2019-05-22T04:11:58.280Z,16.30
2019-05-22T04:14:26.254Z,15.77
2019-05-22T04:16:51.802Z,16.03
2019-05-22T04:19:16.265Z,16.33
2019-05-22T04:21:41.294Z,15.07
2019-05-22T04:24:06.016Z,14.20
2019-05-22T04:26:30.678Z,15.07
2019-05-22T04:28:55.760Z,15.80
2019-05-22T04:31:22.103Z,15.23
2019-05-22T04:33:47.275Z,16.87
2019-05-22T04:36:12.297Z,16.47
2019-05-22T04:38:36.747Z,18.00
2019-05-22T04:41:04.698Z,18.90
2019-05-22T04:43:32.675Z,18.83
2019-05-22T04:46:01.704Z,17.03
2019-05-22T04:48:27.037Z,18.27
2019-05-22T04:50:51.985Z,23.83
2019-05-22T04:53:16.955Z,22.63
2019-05-22T04:55:41.508Z,22.77
2019-05-22T04:58:11.066Z,20.93
2019-05-22T05:00:36.559Z,19.27
2019-05-22T05:03:01.861Z,19.10
2019-05-22T05:05:28.967Z,23.13
2019-05-22T05:07:54.925Z,20.27
2019-05-22T05:10:20.830Z,20.90
2019-05-22T05:12:46.120Z,21.37
2019-05-22T05:15:11.340Z,22.83
2019-05-22T05:17:36.925Z,21.63
2019-05-22T05:20:01.548Z,22.23
2019-05-22T05:22:37.876Z,23.27
2019-05-22T05:25:02.432Z,21.00
2019-05-22T05:27:28.103Z,21.73
2019-05-22T05:29:52.598Z,22.80
2019-05-22T05:32:17.153Z,22.50
2019-05-22T05:34:45.525Z,20.83
2019-05-22T05:37:12.305Z,21.13
2019-05-22T05:39:40.291Z,19.80
2019-05-22T05:42:05.504Z,23.03
2019-05-22T05:44:30.202Z,21.50
2019-05-22T05:46:55.101Z,23.67
2019-05-22T05:49:21.204Z,21.47
2019-05-22T05:51:46.494Z,21.00
2019-05-22T05:54:12.835Z,20.97
2019-05-22T05:56:41.415Z,23.23
2019-05-22T05:59:07.555Z,17.63
2019-05-22T06:01:33.885Z,20.40
2019-05-22T06:04:00.571Z,24.70
2019-05-22T06:06:29.718Z,20.70
2019-05-22T06:08:54.905Z,18.13
2019-05-22T06:11:28.337Z,20.33
2019-05-22T06:13:52.831Z,23.40
2019-05-22T06:16:20.784Z,23.40
2019-05-22T06:18:46.137Z,21.43
2019-05-22T06:21:11.796Z,20.30
2019-05-22T06:23:39.619Z,16.00
2019-05-22T06:26:04.974Z,18.87
2019-05-22T06:28:35.482Z,18.67
2019-05-22T06:31:01.919Z,19.80
2019-05-22T06:33:34.803Z,19.60
2019-05-22T06:36:01.213Z,18.47
2019-05-22T06:38:38.087Z,18.00
2019-05-22T06:41:03.416Z,14.50
2019-05-22T06:43:31.185Z,14.67
2019-05-22T06:45:56.294Z,15.03
2019-05-22T06:48:20.882Z,15.10
2019-05-22T06:50:48.997Z,15.23
2019-05-22T06:53:12.298Z,18.43
2019-05-22T06:55:36.778Z,14.30
2019-05-22T06:58:01.333Z,14.87
2019-05-22T07:00:26.715Z,15.77
2019-05-22T07:02:52.043Z,13.83
2019-05-22T07:05:17.444Z,16.53
2019-05-22T07:07:42.551Z,16.33
2019-05-22T07:10:08.334Z,15.93
2019-05-22T07:12:35.553Z,15.90
2019-05-22T07:15:07.312Z,18.03
2019-05-22T07:17:31.760Z,16.30
2019-05-22T07:19:57.188Z,14.80
2019-05-22T07:22:22.170Z,15.30
2019-05-22T07:24:47.857Z,16.70
2019-05-22T07:27:26.903Z,14.63
2019-05-22T07:29:51.756Z,13.53
2019-05-22T07:32:16.570Z,14.37
2019-05-22T07:34:41.580Z,15.63
2019-05-22T07:37:07.046Z,16.10
2019-05-22T07:39:31.579Z,18.90
2019-05-22T07:41:56.202Z,15.37
2019-05-22T07:44:20.789Z,19.37
2019-05-22T07:46:45.901Z,16.60
2019-05-22T07:49:11.819Z,14.67
2019-05-22T07:51:51.558Z,17.63
2019-05-22T07:54:03.918Z,14.97
2019-05-22T07:56:30.415Z,15.53
2019-05-22T07:58:58.922Z,14.47
2019-05-22T08:01:22.958Z,14.67
2019-05-22T08:03:49.352Z,14.53
2019-05-22T08:06:14.924Z,10.67
2019-05-22T08:08:41.876Z,12.40
2019-05-22T08:11:07.578Z,14.07
2019-05-22T08:13:33.048Z,13.03
2019-05-22T08:15:57.720Z,16.40
2019-05-22T08:18:22.428Z,13.57
2019-05-22T08:20:46.957Z,14.17
2019-05-22T08:23:12.458Z,15.53
2019-05-22T08:25:37.560Z,14.80
2019-05-22T08:28:02.135Z,11.23
2019-05-22T08:30:27.142Z,14.23
2019-05-22T08:32:53.316Z,12.20
2019-05-22T08:35:18.243Z,13.07
2019-05-22T08:37:43.319Z,15.53
2019-05-22T08:40:11.719Z,14.40
2019-05-22T08:42:36.416Z,15.03
2019-05-22T08:45:00.950Z,12.03
2019-05-22T08:47:25.770Z,14.93
2019-05-22T08:49:51.166Z,17.20
2019-05-22T08:52:23.745Z,16.27
2019-05-22T08:54:43.036Z,13.40
2019-05-22T08:57:08.753Z,13.53
2019-05-22T08:59:33.408Z,12.43
2019-05-22T09:01:58.310Z,10.20
2019-05-22T09:04:22.830Z,12.07
2019-05-22T09:06:47.431Z,11.97
2019-05-22T09:09:12.017Z,14.63
2019-05-22T09:11:36.479Z,16.37
2019-05-22T09:14:01.521Z,14.03
2019-05-22T09:16:26.406Z,14.37
2019-05-22T09:18:51.635Z,16.40
2019-05-22T09:21:16.678Z,14.10
2019-05-22T09:23:42.417Z,16.10
2019-05-22T09:26:08.275Z,14.67
2019-05-22T09:28:32.782Z,15.13
2019-05-22T09:30:57.476Z,13.20
2019-05-22T09:33:23.141Z,12.77
2019-05-22T09:35:48.311Z,13.97
2019-05-22T09:38:12.938Z,11.10
2019-05-22T09:40:37.794Z,11.93
2019-05-22T09:43:03.931Z,13.43
2019-05-22T09:45:28.465Z,10.20
2019-05-22T09:47:53.540Z,12.33
2019-05-22T09:50:18.736Z,11.23
2019-05-22T09:52:56.801Z,11.00
2019-05-22T09:55:13.090Z,11.30
2019-05-22T09:57:37.987Z,11.50
2019-05-22T10:00:02.579Z,10.00
2019-05-22T10:02:30.968Z,11.17
2019-05-22T10:04:55.652Z,11.73
2019-05-22T10:07:20.992Z,11.93
2019-05-22T10:09:45.634Z,8.13
2019-05-22T10:12:11.632Z,10.23
2019-05-22T10:14:36.741Z,9.97
2019-05-22T10:17:01.550Z,11.87
2019-05-22T10:19:26.284Z,10.27
2019-05-22T10:21:50.931Z,9.87
2019-05-22T10:24:15.752Z,8.07
2019-05-22T10:26:41.201Z,9.23
2019-05-22T10:29:06.400Z,8.00
2019-05-22T10:31:31.050Z,12.43
2019-05-22T10:33:56.504Z,11.37
2019-05-22T10:36:24.410Z,10.37
2019-05-22T10:38:49.207Z,11.90
2019-05-22T10:41:14.260Z,9.77
2019-05-22T10:43:38.870Z,9.73
2019-05-22T10:46:03.469Z,9.17
2019-05-22T10:48:28.230Z,9.60
2019-05-22T10:50:52.739Z,9.17
2019-05-22T10:53:32.224Z,8.47
2019-05-22T10:55:43.974Z,8.57
2019-05-22T10:58:08.971Z,8.77
2019-05-22T11:00:34.469Z,8.93
2019-05-22T11:02:59.140Z,10.30
2019-05-22T11:05:23.777Z,10.77
2019-05-22T11:07:49.054Z,7.67
2019-05-22T11:10:15.324Z,9.07
2019-05-22T11:12:41.167Z,7.17
2019-05-22T11:15:07.440Z,8.47
2019-05-22T11:17:31.876Z,6.93
2019-05-22T11:19:56.485Z,7.57
2019-05-22T11:22:21.053Z,7.27
2019-05-22T11:24:45.657Z,7.77
2019-05-22T11:27:10.384Z,8.60
2019-05-22T11:29:35.226Z,7.93
2019-05-22T11:32:00.469Z,8.03
2019-05-22T11:34:26.768Z,8.07
2019-05-22T11:36:51.713Z,8.40
2019-05-22T11:39:17.988Z,6.47
2019-05-22T11:41:43.266Z,8.10
2019-05-22T11:44:09.004Z,7.80
2019-05-22T11:46:34.039Z,7.33
2019-05-22T11:48:58.565Z,9.60
2019-05-22T11:51:23.177Z,7.53
2019-05-22T11:53:47.776Z,6.10
2019-05-22T11:56:12.523Z,7.87
2019-05-22T11:58:37.347Z,7.67
2019-05-22T12:01:02.089Z,6.53
2019-05-22T12:03:26.922Z,9.43
2019-05-22T12:05:52.021Z,6.47
2019-05-22T12:08:17.207Z,8.00
2019-05-22T12:10:42.646Z,8.30
2019-05-22T12:13:09.501Z,6.63
2019-05-22T12:15:34.928Z,6.90
2019-05-22T12:18:00.128Z,5.90
2019-05-22T12:20:29.550Z,6.67
2019-05-22T12:22:54.171Z,9.87
2019-05-22T12:25:20.499Z,5.70
2019-05-22T12:27:45.174Z,7.47
2019-05-22T12:30:11.629Z,8.43
2019-05-22T12:32:38.171Z,6.07
2019-05-22T12:35:02.974Z,6.50
2019-05-22T12:37:28.593Z,7.93
2019-05-22T12:39:53.873Z,6.00
2019-05-22T12:42:18.650Z,9.43
2019-05-22T12:44:44.022Z,8.00
2019-05-22T12:47:09.903Z,8.07
2019-05-22T12:49:34.457Z,8.00
2019-05-22T12:52:00.948Z,5.73
2019-05-22T12:54:25.983Z,8.13
2019-05-22T12:56:50.709Z,5.10
2019-05-22T12:59:15.973Z,6.53
2019-05-22T13:01:40.656Z,6.57
2019-05-22T13:04:06.906Z,8.70
2019-05-22T13:06:32.238Z,5.20
2019-05-22T13:08:57.384Z,11.13
2019-05-22T13:11:22.585Z,4.83
2019-05-22T13:13:47.380Z,5.27
2019-05-22T13:16:11.807Z,6.53
2019-05-22T13:18:37.362Z,6.73
2019-05-22T13:21:03.704Z,8.40
2019-05-22T13:23:31.924Z,6.50
2019-05-22T13:25:56.408Z,6.87
2019-05-22T13:28:21.829Z,6.13
2019-05-22T13:30:50.337Z,6.97
2019-05-22T13:33:18.057Z,7.17
2019-05-22T13:35:43.320Z,5.63
2019-05-22T13:38:07.935Z,8.53
2019-05-22T13:40:33.198Z,6.07
2019-05-22T13:42:59.259Z,5.97
2019-05-22T13:45:29.109Z,18.23
2019-05-22T13:47:50.397Z,6.77
2019-05-22T13:50:17.776Z,6.13
2019-05-22T13:52:44.380Z,8.63
2019-05-22T13:55:11.441Z,6.20
2019-05-22T13:57:36.754Z,5.53
2019-05-22T14:00:01.647Z,4.37
2019-05-22T14:02:27.409Z,4.37
2019-05-22T14:04:52.018Z,5.77
2019-05-22T14:07:16.892Z,5.07
2019-05-22T14:09:42.090Z,7.73
2019-05-22T14:12:07.458Z,4.40
2019-05-22T14:14:32.339Z,6.70
2019-05-22T14:16:56.972Z,5.67
2019-05-22T14:19:21.860Z,4.50
2019-05-22T14:21:51.313Z,3.87
2019-05-22T14:24:13.067Z,6.70
2019-05-22T14:26:38.068Z,5.37
2019-05-22T14:29:03.151Z,6.27
2019-05-22T14:31:27.672Z,6.23
2019-05-22T14:33:52.495Z,3.60
2019-05-22T14:36:17.083Z,5.07
2019-05-22T14:38:41.685Z,5.07
2019-05-22T14:41:06.513Z,4.67
2019-05-22T14:43:31.325Z,4.93
2019-05-22T14:45:56.265Z,3.70
2019-05-22T14:48:20.993Z,3.43
2019-05-22T14:50:45.673Z,6.93
2019-05-22T14:53:11.513Z,4.77
2019-05-22T14:55:37.156Z,6.40
2019-05-22T14:58:02.479Z,4.23
2019-05-22T15:00:28.143Z,5.50
2019-05-22T15:02:57.292Z,5.97
2019-05-22T15:05:20.327Z,4.37
2019-05-22T15:07:45.141Z,5.57
2019-05-22T15:10:16.505Z,4.37
2019-05-22T15:12:38.011Z,6.93
2019-05-22T15:15:02.726Z,4.80
2019-05-22T15:17:32.333Z,3.10
2019-05-22T15:19:54.138Z,4.20
2019-05-22T15:22:18.892Z,5.37
2019-05-22T15:24:43.619Z,3.80
2019-05-22T15:27:09.489Z,5.07
2019-05-22T15:29:34.111Z,5.17
2019-05-22T15:31:59.468Z,3.90
2019-05-22T15:34:24.149Z,4.83
2019-05-22T15:36:48.678Z,6.90
2019-05-22T15:39:17.418Z,7.77
2019-05-22T15:41:43.210Z,5.07
2019-05-22T15:44:08.722Z,5.33
2019-05-22T15:46:34.270Z,3.90
2019-05-22T15:48:59.676Z,5.37
2019-05-22T15:51:28.040Z,4.07
2019-05-22T15:53:55.571Z,5.33
2019-05-22T15:56:20.482Z,4.27
2019-05-22T15:58:48.855Z,4.77
2019-05-22T16:01:16.473Z,3.63
2019-05-22T16:03:42.439Z,3.70
2019-05-22T16:06:08.561Z,5.77
2019-05-22T16:08:34.402Z,4.70
2019-05-22T16:11:00.875Z,11.00
2019-05-22T16:13:26.858Z,2.37
2019-05-22T16:15:54.759Z,5.10
2019-05-22T16:18:24.054Z,5.80
2019-05-22T16:20:49.777Z,5.33
2019-05-22T16:23:15.261Z,3.77
2019-05-22T16:25:40.141Z,2.27
2019-05-22T16:28:05.260Z,2.57
2019-05-22T16:30:30.749Z,2.97
2019-05-22T16:32:56.304Z,3.27
2019-05-22T16:35:21.791Z,2.17
2019-05-22T16:37:47.345Z,2.30
2019-05-22T16:40:13.135Z,5.83
2019-05-22T16:42:38.991Z,4.00
2019-05-22T16:45:05.879Z,2.73
2019-05-22T16:47:33.517Z,3.20
2019-05-22T16:49:58.359Z,5.97
2019-05-22T16:52:25.423Z,3.97
2019-05-22T16:54:50.017Z,4.30
2019-05-22T16:57:15.499Z,1.60
2019-05-22T16:59:41.355Z,4.23
2019-05-22T17:02:07.631Z,4.30
2019-05-22T17:04:32.136Z,3.10
2019-05-22T17:06:56.664Z,3.93
2019-05-22T17:09:21.774Z,2.80
2019-05-22T17:11:47.430Z,2.10
2019-05-22T17:14:14.599Z,7.40
2019-05-22T17:16:39.798Z,2.80
2019-05-22T17:19:23.716Z,2.80
2019-05-22T17:21:32.311Z,4.20
2019-05-22T17:23:59.420Z,5.77
2019-05-22T17:26:24.158Z,4.63
2019-05-22T17:28:49.091Z,1.40
2019-05-22T17:31:15.376Z,3.23
2019-05-22T17:33:40.578Z,3.77
2019-05-22T17:36:06.866Z,2.90
2019-05-22T17:38:32.065Z,5.43
2019-05-22T17:40:57.337Z,6.00
2019-05-22T17:43:24.163Z,2.90
2019-05-22T17:45:49.199Z,3.00
2019-05-22T17:48:16.364Z,3.33
2019-05-22T17:50:41.741Z,4.10
2019-05-22T17:53:06.716Z,2.17
2019-05-22T17:55:31.992Z,2.57
2019-05-22T17:57:57.488Z,1.97
2019-05-22T18:00:29.574Z,4.83
2019-05-22T18:02:54.657Z,4.27
2019-05-22T18:05:19.735Z,4.97
2019-05-22T18:07:44.377Z,5.20
2019-05-22T18:10:10.351Z,2.90
2019-05-22T18:12:35.106Z,4.17
2019-05-22T18:14:59.986Z,2.40
2019-05-22T18:17:24.773Z,4.33
2019-05-22T18:19:49.367Z,2.20
2019-05-22T18:22:14.648Z,4.00
2019-05-22T18:24:39.189Z,2.77
2019-05-22T18:27:03.675Z,4.10
2019-05-22T18:29:28.291Z,4.00
2019-05-22T18:31:52.899Z,3.63
2019-05-22T18:34:17.718Z,4.73
2019-05-22T18:36:42.396Z,2.03
2019-05-22T18:39:09.017Z,4.60
2019-05-22T18:41:33.584Z,3.03
2019-05-22T18:43:59.048Z,3.03
2019-05-22T18:46:23.745Z,3.10
2019-05-22T18:48:48.468Z,2.60
2019-05-22T18:51:13.294Z,3.97
2019-05-22T18:53:38.675Z,2.43
2019-05-22T18:56:04.063Z,4.73
2019-05-22T18:58:28.825Z,3.13
2019-05-22T19:00:53.533Z,4.77
2019-05-22T19:03:18.277Z,3.40
2019-05-22T19:05:43.576Z,2.97
2019-05-22T19:08:08.156Z,4.13
2019-05-22T19:10:32.753Z,2.90
2019-05-22T19:12:57.922Z,2.20
2019-05-22T19:15:22.707Z,5.50
2019-05-22T19:17:47.559Z,1.97
2019-05-22T19:20:12.251Z,5.73
2019-05-22T19:22:37.130Z,3.53
2019-05-22T19:25:02.206Z,5.07
2019-05-22T19:27:26.670Z,5.40
2019-05-22T19:29:51.246Z,6.43
2019-05-22T19:32:15.938Z,7.93
2019-05-22T19:34:40.559Z,2.33
2019-05-22T19:37:05.344Z,4.83
2019-05-22T19:39:30.238Z,4.57
2019-05-22T19:42:02.689Z,2.07
2019-05-22T19:44:21.806Z,3.00
2019-05-22T19:46:46.390Z,4.23
2019-05-22T19:49:11.685Z,5.53
2019-05-22T19:51:37.373Z,2.97
2019-05-22T19:54:01.913Z,3.00
2019-05-22T19:56:26.775Z,3.13
2019-05-22T19:58:52.088Z,1.77
2019-05-22T20:01:17.742Z,2.87
2019-05-22T20:03:42.430Z,2.20
2019-05-22T20:06:07.311Z,2.97
2019-05-22T20:08:32.022Z,5.67
2019-05-22T20:10:56.463Z,5.33
2019-05-22T20:13:23.690Z,3.97
2019-05-22T20:15:48.370Z,4.03
2019-05-22T20:18:13.612Z,3.27
2019-05-22T20:20:38.664Z,3.93
2019-05-22T20:23:04.577Z,2.63
2019-05-22T20:25:29.265Z,4.53
2019-05-22T20:27:54.608Z,3.10
2019-05-22T20:30:21.746Z,3.33
2019-05-22T20:32:46.256Z,3.67
2019-05-22T20:35:11.536Z,4.63
2019-05-22T20:37:36.064Z,4.27
2019-05-22T20:40:00.796Z,2.87
2019-05-22T20:42:25.559Z,2.30
2019-05-22T20:44:50.235Z,2.93
2019-05-22T20:47:16.474Z,4.70
2019-05-22T20:49:44.955Z,6.07
2019-05-22T20:52:10.865Z,4.33
2019-05-22T20:54:36.577Z,4.00
2019-05-22T20:57:02.308Z,3.37
2019-05-22T20:59:27.130Z,3.73
2019-05-22T21:01:51.764Z,3.90
2019-05-22T21:04:19.744Z,5.33
2019-05-22T21:06:50.021Z,5.03
2019-05-22T21:09:14.680Z,4.17
2019-05-22T21:11:40.469Z,6.03
2019-05-22T21:14:05.922Z,3.03
2019-05-22T21:16:31.619Z,3.63
2019-05-22T21:18:57.107Z,3.97
2019-05-22T21:21:23.729Z,3.70
2019-05-22T21:23:49.118Z,3.23
2019-05-22T21:26:15.253Z,4.10
2019-05-22T21:28:40.233Z,5.17
2019-05-22T21:31:05.924Z,3.17
2019-05-22T21:33:30.808Z,5.47
2019-05-22T21:35:55.388Z,4.17
2019-05-22T21:38:20.664Z,3.53
2019-05-22T21:40:45.817Z,6.50
2019-05-22T21:43:10.882Z,3.03
2019-05-22T21:45:35.506Z,5.13
2019-05-22T21:48:00.110Z,3.73
2019-05-22T21:50:25.818Z,2.87
2019-05-22T21:52:52.787Z,2.83
2019-05-22T21:55:19.342Z,3.03
2019-05-22T21:57:45.518Z,3.37
2019-05-22T22:00:14.706Z,2.60
2019-05-22T22:02:42.255Z,3.77
2019-05-22T22:05:08.822Z,2.57
2019-05-22T22:07:33.324Z,3.57
2019-05-22T22:09:59.919Z,5.87
2019-05-22T22:12:24.948Z,3.87
2019-05-22T22:14:49.666Z,3.50
2019-05-22T22:17:14.807Z,5.93
2019-05-22T22:19:39.392Z,3.57
2019-05-22T22:22:05.329Z,5.00
2019-05-22T22:24:30.386Z,3.70
2019-05-22T22:26:55.499Z,3.93
2019-05-22T22:29:20.705Z,4.47
2019-05-22T22:31:46.325Z,5.17
2019-05-22T22:34:17.696Z,4.17
2019-05-22T22:36:42.516Z,3.43
2019-05-22T22:39:08.206Z,5.10
2019-05-22T22:41:33.217Z,4.13
2019-05-22T22:43:58.445Z,4.07
2019-05-22T22:46:30.206Z,4.27
2019-05-22T22:48:57.862Z,5.47
2019-05-22T22:51:25.325Z,6.23
2019-05-22T22:53:50.394Z,3.27
2019-05-22T22:56:15.930Z,8.97
2019-05-22T22:58:41.116Z,7.03
2019-05-22T23:01:09.438Z,4.53
2019-05-22T23:03:35.895Z,3.80
2019-05-22T23:06:01.013Z,4.50
2019-05-22T23:08:29.605Z,4.33
2019-05-22T23:10:54.824Z,5.07
2019-05-22T23:13:19.436Z,6.00
2019-05-22T23:15:44.472Z,7.30
2019-05-22T23:18:10.758Z,7.93
2019-05-22T23:20:34.117Z,4.90
2019-05-22T23:22:57.421Z,4.83
2019-05-22T23:25:23.887Z,4.10
2019-05-22T23:27:48.679Z,4.63
2019-05-22T23:30:14.072Z,4.07
2019-05-22T23:32:41.343Z,5.67
2019-05-22T23:35:07.519Z,3.80
2019-05-22T23:37:32.345Z,4.03
2019-05-22T23:39:57.434Z,3.70
2019-05-22T23:42:25.736Z,5.80
2019-05-22T23:44:53.922Z,3.97
2019-05-22T23:47:19.105Z,5.00
2019-05-22T23:49:43.665Z,4.83
2019-05-22T23:52:10.598Z,7.10
2019-05-22T23:54:36.190Z,4.60
2019-05-22T23:57:01.886Z,5.23
2019-05-22T23:59:27.944Z,10.00
